Oakmont, PA (15139)

5:54 AM EDT on October 01, 2016 (GMT -0400)
Powers Run | | Change Station

Elev 991 ft 40.52 °N, 79.87 °W | Updated 6 seconds ago

Light Rain
Light Rain
57.2 °F
Feels Like 57.2 °F
N
0.0
Wind Variable Wind from East
Gusts 0.0 mph

Today
High -- | Low -- °F
--% Chance of Precip.
Yesterday
High -- | Low -- °F
Precip. -- in
Pressure 30.10 in
Visibility 9.0 miles
Clouds Few 3100 ft
Mostly Cloudy 3900 ft
Overcast 6000 ft
Dew Point 57 °F
Humidity 99%
Rainfall 0.15 in
Snow Depth Not available.
7:16 AM 7:00 PM
New Moon, 0% visible
METAR KAGC 010853Z 11004KT 9SM -RA FEW031 BKN039 OVC060 14/12 A3009 RMK AO2 SLP192 P0008 60015 T01390122 50000
Pressure 30.10 in
Visibility 9.0 miles
Clouds Few 3100 ft
Mostly Cloudy 3900 ft
Overcast 6000 ft
Dew Point 57 °F
Humidity 99%
Rainfall 0.15 in
Snow Depth Not available.
7:16 AM 7:00 PM
New Moon, 0% visible
METAR KAGC 010853Z 11004KT 9SM -RA FEW031 BKN039 OVC060 14/12 A3009 RMK AO2 SLP192 P0008 60015 T01390122 50000

10-Day Weather Forecast

Almanac

Astronomy

Oct. 01, 2016 Rise Set
Actual Time
Civil Twilight
Nautical Twilight
Astronomical Twilight
Moon
Length of Visible Light
Length of Day
Tomorrow will be .
, % of the Moon is Illuminated

Today's Extremes

State Highs State Lows

Community

WunderPhotos

Upload Photos

1,942,907 photos uploaded!

WunderBlog® & News

Nearby

Air Quality

  Air Quality AQ Index Pollutant
Not available.

Snow Depth

Station Depth Elevation

Earthquake Activity

City Distance Mag. Time & Date
Minimum magnitude displayed is 2.5.

Coastal Water Temperatures

Place Temperature

Stations

Nearby Weather Stations

Station Location Temp. Windchill Dew Point Humidity Wind Precip. Elev Updated Type
                   

Watches & Warnings

There are currently no watches in effect.